METAR Data
IDs: Format: Raw Decoded Include TAF

Data at: 0120 UTC 06 Dec 2019

KUZA 060054Z AUTO 21004KT 10SM CLR 06/M02 A3017 RMK AO2 SLP221 T00561022
KUZA 052354Z AUTO 00000KT 10SM CLR 08/M03 A3015 RMK AO2 SLP212 T00781028 10167 20061 51018
KUZA 052254Z AUTO 00000KT 10SM CLR 11/M03 A3013 RMK AO2 SLP206 T01061033
KUZA 052154Z AUTO 25003KT 10SM CLR 14/M05 A3011 RMK AO2 SLP197 T01391050
KUZA 052054Z AUTO 25005KT 10SM CLR 17/M07 A3009 RMK AO2 SLP191 T01671067 53004
KUZA 051954Z AUTO VRB04KT 10SM CLR 17/M07 A3008 RMK AO2 SLP185 T01671067
KUZA 051854Z AUTO 25007KT 10SM CLR 17/M07 A3008 RMK AO2 SLP184 T01671067
KUZA 051754Z AUTO 36005KT 10SM CLR 16/M07 A3008 RMK AO2 SLP186 T01611067 10161 20033 58001
KUZA 051654Z AUTO 30003KT 10SM CLR 14/M04 A3010 RMK AO2 SLP192 T01441044
KUZA 051554Z AUTO 02006KT 10SM CLR 13/M04 A3011 RMK AO2 SLP194 T01281039
KUZA 051454Z AUTO 03006KT 10SM CLR 12/M04 A3009 RMK AO2 SLP187 T01171039 51028
KUZA 051354Z AUTO 00000KT 10SM CLR 08/M02 A3006 RMK AO2 SLP182 T00781022
KUZA 051254Z AUTO 00000KT 10SM CLR 04/M02 A3004 RMK AO2 SLP175 T00391022
KUZA 051154Z AUTO 00000KT 10SM CLR 06/M04 A3000 RMK AO2 SLP161 T00611044 10067 20022 53034
KUZA 051054Z AUTO VRB04KT 10SM CLR 04/M03 A2997 RMK AO2 SLP151 T00441033
KUZA 050954Z AUTO 20004KT 10SM CLR 06/M04 A2993 RMK AO2 SLP134 T00561039
KUZA 050854Z AUTO 23005KT 10SM CLR 03/M04 A2990 RMK AO2 SLP126 T00281039 53024
KUZA 050754Z AUTO 24009KT 10SM CLR 06/M04 A2987 RMK AO2 SLP114 T00611039
KUZA 050654Z AUTO 23007KT 10SM CLR 05/M04 A2984 RMK AO2 SLP106 T00501039
KUZA 050554Z AUTO 24006KT 10SM CLR 06/M04 A2983 RMK AO2 SLP100 T00611044 10111 20050 51006
KUZA 050454Z AUTO 25007KT 10SM CLR 09/M06 A2982 RMK AO2 SLP099 T00891056 401501022
KUZA 050354Z AUTO 25007KT 10SM CLR 09/M06 A2982 RMK AO2 SLP097 T00941061
KUZA 050254Z AUTO 26006KT 10SM CLR 11/M06 A2981 RMK AO2 SLP094 T01061061 51007
KUZA 050154Z AUTO 26005KT 10SM CLR 09/M06 A2980 RMK AO2 SLP095 T00941056
KUZA 050054Z AUTO 26006KT 10SM CLR 07/M02 A2980 RMK AO2 SLP096 T00671017
KUZA 042354Z AUTO 23003KT 10SM CLR 09/M02 A2979 RMK AO2 SLP092 T00891017 10150 20089 53017
KUZA 042254Z AUTO 24005KT 10SM CLR 11/M02 A2976 RMK AO2 SLP084 T01061017
KUZA 042154Z AUTO 26007KT 10SM CLR 13/M02 A2975 RMK AO2 SLP077 T01331022
KUZA 042054Z AUTO 25012G18KT 10SM CLR 14/M03 A2974 RMK AO2 SLP070 T01441028 53000
KUZA 041954Z AUTO 25007KT 10SM CLR 15/M03 A2973 RMK AO2 SLP067 T01501033
KUZA 041854Z AUTO 26010G19KT 10SM CLR 14/M03 A2973 RMK AO2 SLP067 T01441033
KUZA 041754Z AUTO 24010KT 10SM CLR 14/M03 A2973 RMK AO2 SLP070 I6000 T01391033 10139 21011 58022
KUZA 041654Z AUTO 26003KT 10SM CLR 11/M02 A2976 RMK AO2 SLP079 T01111022
KUZA 041554Z AUTO 24005KT 10SM CLR 10/M03 A2978 RMK AO2 SLP088 T01001028
KUZA 041454Z AUTO 22004KT 10SM CLR 08/M01 A2980 RMK AO2 SLP094 I3000 T00781011 50013
KUZA 041354Z AUTO 27004KT 10SM CLR 04/00 A2982 RMK AO2 SLP101 T00440000